createdAt,value
2022-08-26T04:30:58.471Z,25.10
2022-08-26T04:31:58.416Z,23.40
2022-08-26T04:32:58.411Z,24.00
2022-08-26T04:33:58.378Z,28.70
2022-08-26T04:34:58.408Z,25.50
2022-08-26T04:35:58.348Z,28.50
2022-08-26T04:36:58.373Z,28.30
2022-08-26T04:37:58.329Z,26.20
2022-08-26T04:38:58.318Z,28.10
2022-08-26T04:39:58.342Z,27.80
2022-08-26T04:40:58.299Z,26.90
2022-08-26T04:41:58.288Z,26.30
2022-08-26T04:42:58.267Z,28.80
2022-08-26T04:43:58.248Z,26.40
2022-08-26T04:45:05.859Z,29.20
2022-08-26T04:45:58.243Z,27.00
2022-08-26T04:46:58.224Z,27.70
2022-08-26T04:47:58.256Z,28.50
2022-08-26T04:48:58.184Z,30.00
2022-08-26T04:49:58.175Z,28.80
2022-08-26T04:50:58.189Z,25.20
2022-08-26T04:51:58.165Z,25.10
2022-08-26T04:52:58.135Z,23.20
2022-08-26T04:53:58.126Z,25.10
2022-08-26T04:54:58.126Z,27.60
2022-08-26T04:55:58.113Z,31.10
2022-08-26T04:56:58.104Z,27.50
2022-08-26T04:57:58.090Z,31.10
2022-08-26T04:58:58.064Z,26.90
2022-08-26T04:59:58.047Z,23.40
2022-08-26T05:00:58.034Z,30.10
2022-08-26T05:01:58.055Z,34.40
2022-08-26T05:02:58.005Z,34.30
2022-08-26T05:03:58.024Z,32.70
2022-08-26T05:04:57.984Z,36.00
2022-08-26T05:05:57.971Z,39.40
2022-08-26T05:07:02.403Z,35.50
2022-08-26T05:07:58.945Z,44.10
2022-08-26T05:08:57.953Z,43.40
2022-08-26T05:09:57.914Z,47.40
2022-08-26T05:10:57.912Z,60.10
2022-08-26T05:11:57.941Z,54.60
2022-08-26T05:12:57.875Z,63.20
2022-08-26T05:14:00.335Z,53.90
2022-08-26T05:14:57.855Z,50.20
2022-08-26T05:16:00.009Z,52.40
2022-08-26T05:16:57.842Z,44.80
2022-08-26T05:17:57.854Z,66.40
2022-08-26T05:18:57.804Z,74.20
2022-08-26T05:19:57.783Z,80.80
2022-08-26T05:20:57.793Z,87.50
2022-08-26T05:21:57.764Z,89.00
2022-08-26T05:22:57.753Z,83.50
2022-08-26T05:23:57.744Z,84.80
2022-08-26T05:24:57.724Z,87.30
2022-08-26T05:26:00.442Z,89.90
2022-08-26T05:26:57.724Z,97.00
2022-08-26T05:27:57.703Z,90.40
2022-08-26T05:28:57.674Z,96.40
2022-08-26T05:29:57.653Z,97.20
2022-08-26T05:30:57.694Z,94.90
2022-08-26T05:31:57.642Z,104.90
2022-08-26T05:32:57.630Z,107.80
2022-08-26T05:33:57.661Z,104.30
2022-08-26T05:34:57.593Z,111.60
2022-08-26T05:35:57.606Z,106.50
2022-08-26T05:36:57.583Z,113.70
2022-08-26T05:37:57.552Z,114.60
2022-08-26T05:38:57.544Z,110.50
2022-08-26T05:39:57.627Z,120.20
2022-08-26T05:40:57.515Z,121.00
2022-08-26T05:41:57.523Z,124.10
2022-08-26T05:42:57.638Z,118.30
2022-08-26T05:43:57.485Z,119.00
2022-08-26T05:44:57.463Z,123.30
2022-08-26T05:45:57.510Z,122.70
2022-08-26T05:46:57.453Z,114.80
2022-08-26T05:47:57.428Z,117.30
2022-08-26T05:48:57.414Z,114.80
2022-08-26T05:49:57.393Z,103.10
2022-08-26T05:50:57.399Z,116.10
2022-08-26T05:51:57.384Z,111.60
2022-08-26T05:52:57.457Z,111.30
2022-08-26T05:53:57.346Z,112.60
2022-08-26T05:54:57.513Z,114.50
2022-08-26T05:55:58.143Z,117.50
2022-08-26T05:56:57.314Z,112.10
2022-08-26T05:57:57.481Z,109.40
2022-08-26T05:58:58.483Z,113.70
2022-08-26T05:59:57.273Z,108.50
2022-08-26T06:00:57.261Z,112.30
2022-08-26T06:01:57.365Z,116.20
2022-08-26T06:02:57.375Z,97.90
2022-08-26T06:03:57.246Z,118.50
2022-08-26T06:04:57.219Z,88.00
2022-08-26T06:05:57.192Z,101.40
2022-08-26T06:06:57.192Z,112.10
2022-08-26T06:07:57.166Z,100.30
2022-08-26T06:08:57.170Z,110.10
2022-08-26T06:10:21.336Z,100.80
2022-08-26T06:10:58.131Z,112.90
2022-08-26T06:11:57.114Z,109.60
2022-08-26T06:12:57.103Z,109.00
2022-08-26T06:14:01.212Z,108.10
2022-08-26T06:14:58.074Z,93.00
2022-08-26T06:15:57.096Z,103.20
2022-08-26T06:16:57.065Z,102.20
2022-08-26T06:17:57.045Z,87.30
2022-08-26T06:18:57.044Z,95.60
2022-08-26T06:19:57.024Z,92.80
2022-08-26T06:20:58.283Z,92.20
2022-08-26T06:21:57.013Z,93.80
2022-08-26T06:22:56.993Z,97.80
2022-08-26T06:23:56.955Z,92.50
2022-08-26T06:24:56.943Z,92.90
2022-08-26T06:25:57.044Z,87.20
2022-08-26T06:26:56.943Z,81.50
2022-08-26T06:27:56.909Z,88.20
2022-08-26T06:28:56.898Z,83.10
2022-08-26T06:29:56.979Z,85.40
2022-08-26T06:30:57.026Z,96.30
2022-08-26T06:31:56.871Z,91.90
2022-08-26T06:32:56.843Z,74.90
2022-08-26T06:33:56.831Z,83.20
2022-08-26T06:34:56.823Z,90.20
2022-08-26T06:35:56.813Z,79.40
2022-08-26T06:36:56.803Z,86.80
2022-08-26T06:37:56.792Z,82.50
2022-08-26T06:38:56.774Z,89.10
2022-08-26T06:39:56.797Z,84.80
2022-08-26T06:40:57.854Z,80.30
2022-08-26T06:41:56.733Z,79.80
2022-08-26T06:42:56.714Z,81.20
2022-08-26T06:43:56.713Z,81.80
2022-08-26T06:44:56.704Z,78.80
2022-08-26T06:45:56.705Z,84.70
2022-08-26T06:46:56.663Z,81.30
2022-08-26T06:47:56.654Z,77.10
2022-08-26T06:48:56.634Z,82.50
2022-08-26T06:49:56.613Z,90.20
2022-08-26T06:50:56.614Z,79.40
2022-08-26T06:51:56.617Z,80.30
2022-08-26T06:52:56.584Z,81.40
2022-08-26T06:53:56.563Z,77.30
2022-08-26T06:54:56.563Z,76.70
2022-08-26T06:55:56.582Z,80.30
2022-08-26T06:56:56.553Z,78.00
2022-08-26T06:57:56.535Z,82.30
2022-08-26T06:58:56.504Z,79.80
2022-08-26T06:59:56.532Z,73.10
2022-08-26T07:00:59.526Z,76.30
2022-08-26T07:01:57.509Z,78.50
2022-08-26T07:02:56.527Z,72.90
2022-08-26T07:03:57.108Z,77.40
2022-08-26T07:04:56.774Z,72.80
2022-08-26T07:05:56.404Z,80.70
2022-08-26T07:06:56.404Z,71.20
2022-08-26T07:07:56.394Z,73.80
2022-08-26T07:08:56.373Z,77.80
2022-08-26T07:09:56.355Z,71.70
2022-08-26T07:10:56.344Z,76.60
2022-08-26T07:11:56.381Z,68.50
2022-08-26T07:12:56.334Z,70.20
2022-08-26T07:13:56.316Z,71.30
2022-08-26T07:14:56.304Z,65.60
2022-08-26T07:15:57.365Z,74.00
2022-08-26T07:16:56.264Z,74.90
2022-08-26T07:17:56.284Z,79.60
2022-08-26T07:18:56.244Z,73.60
2022-08-26T07:19:56.226Z,73.80
2022-08-26T07:20:56.214Z,70.70
2022-08-26T07:21:56.214Z,67.30
2022-08-26T07:22:56.192Z,72.40
2022-08-26T07:24:01.535Z,75.60
2022-08-26T07:24:57.166Z,71.60
2022-08-26T07:25:56.200Z,63.30
2022-08-26T07:26:56.155Z,71.40
2022-08-26T07:27:56.126Z,71.50
2022-08-26T07:28:56.115Z,67.00
2022-08-26T07:29:56.095Z,69.60
2022-08-26T07:30:56.174Z,69.40
2022-08-26T07:31:56.320Z,64.00
2022-08-26T07:32:56.085Z,69.20
2022-08-26T07:33:56.045Z,64.70
2022-08-26T07:34:56.034Z,62.90
2022-08-26T07:35:56.026Z,63.40
2022-08-26T07:36:56.005Z,66.20
2022-08-26T07:37:57.162Z,72.50
2022-08-26T07:38:55.986Z,68.30
2022-08-26T07:39:56.032Z,67.10
2022-08-26T07:40:55.965Z,64.40
2022-08-26T07:41:55.945Z,64.60
2022-08-26T07:42:55.944Z,63.50
2022-08-26T07:43:55.915Z,59.30
2022-08-26T07:44:55.909Z,65.20
2022-08-26T07:45:55.897Z,61.10
2022-08-26T07:46:55.888Z,67.50
2022-08-26T07:47:55.885Z,66.00
2022-08-26T07:48:55.855Z,66.50
2022-08-26T07:49:55.845Z,61.70
2022-08-26T07:50:55.826Z,62.80
2022-08-26T07:51:55.875Z,62.90
2022-08-26T07:52:55.806Z,68.30
2022-08-26T07:53:55.795Z,68.30
2022-08-26T07:54:55.794Z,65.00
2022-08-26T07:55:55.803Z,60.30
2022-08-26T07:56:56.022Z,60.00
2022-08-26T07:57:55.756Z,63.00
2022-08-26T07:58:55.779Z,57.50
2022-08-26T07:59:55.716Z,61.30
2022-08-26T08:00:55.709Z,65.90
2022-08-26T08:01:55.724Z,61.30
2022-08-26T08:02:55.678Z,62.20
2022-08-26T08:03:55.665Z,64.90
2022-08-26T08:04:55.715Z,58.30
2022-08-26T08:05:55.645Z,56.40
2022-08-26T08:06:55.649Z,58.80
2022-08-26T08:08:26.503Z,60.40
2022-08-26T08:08:56.606Z,58.50
2022-08-26T08:09:55.606Z,58.70
2022-08-26T08:10:55.575Z,59.50
2022-08-26T08:11:55.568Z,64.70
2022-08-26T08:12:55.556Z,57.20
2022-08-26T08:13:56.397Z,57.00
2022-08-26T08:14:55.518Z,59.90
2022-08-26T08:15:55.514Z,55.60
2022-08-26T08:16:55.695Z,59.80
2022-08-26T08:17:57.624Z,58.10
2022-08-26T08:18:55.566Z,59.40
2022-08-26T08:19:55.467Z,57.70
2022-08-26T08:21:10.904Z,49.50
2022-08-26T08:21:56.447Z,56.60
2022-08-26T08:22:55.417Z,57.10
2022-08-26T08:23:55.409Z,54.50
2022-08-26T08:24:55.577Z,55.70
2022-08-26T08:25:55.506Z,52.70
2022-08-26T08:26:55.387Z,59.30
2022-08-26T08:27:55.368Z,50.70
2022-08-26T08:28:55.345Z,54.60
2022-08-26T08:29:55.327Z,55.40
2022-08-26T08:30:55.375Z,52.10
2022-08-26T08:31:56.573Z,53.10
2022-08-26T08:32:55.289Z,55.00
2022-08-26T08:33:55.280Z,54.00
2022-08-26T08:34:55.348Z,57.70
2022-08-26T08:35:55.247Z,52.80
2022-08-26T08:36:55.256Z,54.80
2022-08-26T08:37:55.236Z,52.40
2022-08-26T08:38:55.217Z,55.50
2022-08-26T08:39:55.249Z,49.80
2022-08-26T08:40:55.187Z,48.30
2022-08-26T08:41:55.407Z,47.80
2022-08-26T08:42:55.173Z,53.10
2022-08-26T08:43:55.157Z,54.80
2022-08-26T08:44:55.148Z,51.30
2022-08-26T08:45:55.208Z,54.20
2022-08-26T08:46:55.148Z,52.10
2022-08-26T08:47:55.097Z,52.00
2022-08-26T08:48:55.088Z,54.70
2022-08-26T08:49:55.068Z,60.30
2022-08-26T08:50:55.071Z,52.30
2022-08-26T08:51:55.072Z,54.40
2022-08-26T08:52:55.028Z,51.50
2022-08-26T08:53:55.088Z,56.90
2022-08-26T08:54:55.008Z,52.60
2022-08-26T08:55:55.017Z,48.80
2022-08-26T08:56:54.998Z,51.50
2022-08-26T08:57:54.967Z,54.40
2022-08-26T08:58:56.782Z,54.70
2022-08-26T08:59:54.938Z,49.70
2022-08-26T09:00:55.009Z,53.90
2022-08-26T09:01:54.917Z,56.10
2022-08-26T09:02:54.928Z,55.80
2022-08-26T09:03:54.889Z,58.60
2022-08-26T09:04:54.879Z,53.10
2022-08-26T09:05:55.260Z,51.60
2022-08-26T09:06:54.909Z,52.30
2022-08-26T09:07:54.849Z,53.30
2022-08-26T09:08:54.860Z,50.90
2022-08-26T09:09:54.818Z,54.10
2022-08-26T09:10:54.817Z,50.50
2022-08-26T09:11:54.799Z,54.00
2022-08-26T09:12:54.782Z,53.20
2022-08-26T09:13:54.760Z,46.80
2022-08-26T09:14:54.748Z,50.80
2022-08-26T09:15:54.729Z,48.80
2022-08-26T09:16:54.777Z,53.00
2022-08-26T09:17:54.730Z,49.30
2022-08-26T09:18:54.719Z,51.70
2022-08-26T09:19:54.688Z,44.50
2022-08-26T09:20:54.678Z,52.20
2022-08-26T09:21:54.670Z,57.00
2022-08-26T09:22:54.649Z,51.30
2022-08-26T09:23:54.629Z,49.90
2022-08-26T09:24:54.619Z,49.80
2022-08-26T09:26:54.610Z,50.30
2022-08-26T09:27:54.579Z,52.50
2022-08-26T09:28:54.580Z,47.20
2022-08-26T09:29:54.558Z,48.00
2022-08-26T09:30:54.588Z,50.60
2022-08-26T09:31:54.549Z,46.90
2022-08-26T09:32:55.729Z,49.30
2022-08-26T09:33:54.508Z,47.90
2022-08-26T09:34:54.499Z,45.40
2022-08-26T09:35:54.480Z,44.80
2022-08-26T09:36:54.480Z,43.90
2022-08-26T09:37:54.546Z,43.10
2022-08-26T09:38:54.460Z,44.40
2022-08-26T09:39:54.454Z,48.80
2022-08-26T09:40:58.962Z,45.30
2022-08-26T09:41:55.400Z,42.30
2022-08-26T09:42:54.400Z,46.30
2022-08-26T09:43:54.379Z,46.10
2022-08-26T09:44:54.372Z,46.20
2022-08-26T09:45:58.405Z,48.40
2022-08-26T09:46:55.340Z,46.10
2022-08-26T09:47:54.330Z,46.30
2022-08-26T09:48:54.321Z,44.80
2022-08-26T09:49:54.317Z,48.60
2022-08-26T09:50:54.298Z,40.40
2022-08-26T09:51:54.310Z,40.40
2022-08-26T09:52:54.271Z,44.00
2022-08-26T09:53:54.250Z,38.70
2022-08-26T09:54:54.251Z,47.90
2022-08-26T09:55:54.251Z,43.30
2022-08-26T09:56:54.213Z,44.50
2022-08-26T09:57:54.212Z,48.60
2022-08-26T09:58:54.192Z,43.80
2022-08-26T09:59:54.185Z,44.10
2022-08-26T10:00:54.208Z,39.90
2022-08-26T10:01:54.245Z,42.40
2022-08-26T10:02:57.942Z,41.00
2022-08-26T10:03:54.202Z,39.80
2022-08-26T10:04:54.107Z,43.90
2022-08-26T10:05:54.091Z,42.90
2022-08-26T10:06:54.082Z,41.70
2022-08-26T10:07:54.283Z,40.80
2022-08-26T10:08:54.239Z,43.10
2022-08-26T10:09:54.041Z,45.00
2022-08-26T10:10:54.034Z,38.30
2022-08-26T10:11:54.011Z,37.90
2022-08-26T10:12:54.021Z,44.80
2022-08-26T10:13:54.002Z,39.60
2022-08-26T10:14:54.002Z,45.50
2022-08-26T10:15:53.962Z,39.70
2022-08-26T10:16:54.020Z,40.20
2022-08-26T10:17:53.942Z,45.50
2022-08-26T10:18:58.108Z,43.50
2022-08-26T10:19:57.046Z,44.10
2022-08-26T10:20:53.926Z,43.80
2022-08-26T10:21:54.074Z,43.60
2022-08-26T10:22:53.900Z,41.70
2022-08-26T10:23:53.855Z,42.40
2022-08-26T10:24:55.258Z,42.10
2022-08-26T10:25:53.832Z,42.10
2022-08-26T10:26:54.822Z,42.70
2022-08-26T10:27:53.882Z,41.40
2022-08-26T10:28:53.802Z,44.50
2022-08-26T10:29:53.783Z,38.90
2022-08-26T10:30:53.801Z,40.30
2022-08-26T10:31:53.782Z,36.50
2022-08-26T10:32:54.770Z,41.20
2022-08-26T10:33:57.996Z,42.30
2022-08-26T10:34:54.714Z,38.50
2022-08-26T10:35:53.704Z,40.00
2022-08-26T10:37:14.592Z,40.60
2022-08-26T10:37:54.691Z,41.50
2022-08-26T10:38:53.663Z,40.70
2022-08-26T10:39:59.037Z,44.60
2022-08-26T10:40:54.645Z,40.60
2022-08-26T10:41:53.624Z,39.50
2022-08-26T10:42:53.633Z,41.60
2022-08-26T10:43:53.593Z,40.30
2022-08-26T10:45:00.682Z,38.60
2022-08-26T10:45:53.596Z,40.60
2022-08-26T10:46:53.570Z,40.00
2022-08-26T10:47:53.559Z,39.40
2022-08-26T10:48:53.540Z,40.80
2022-08-26T10:49:55.577Z,38.50
2022-08-26T10:50:54.511Z,38.30
2022-08-26T10:51:53.500Z,38.50
2022-08-26T10:52:53.500Z,40.80
2022-08-26T10:53:53.471Z,40.30
2022-08-26T10:54:53.468Z,42.80
2022-08-26T10:55:53.449Z,37.00
2022-08-26T10:56:53.448Z,35.80
2022-08-26T10:57:53.438Z,37.20
2022-08-26T10:58:53.420Z,36.40
2022-08-26T10:59:53.399Z,34.00
2022-08-26T11:00:53.478Z,35.60
2022-08-26T11:01:53.410Z,33.10
2022-08-26T11:02:53.371Z,37.30
2022-08-26T11:03:53.360Z,31.00
2022-08-26T11:04:53.339Z,34.90
2022-08-26T11:05:53.333Z,33.70
2022-08-26T11:06:53.320Z,33.00
2022-08-26T11:07:53.302Z,34.00
2022-08-26T11:08:53.304Z,35.30
2022-08-26T11:09:53.267Z,38.60
2022-08-26T11:10:53.255Z,31.30
2022-08-26T11:11:53.249Z,34.20
2022-08-26T11:12:53.417Z,34.00
2022-08-26T11:13:53.218Z,33.10
2022-08-26T11:14:59.069Z,32.10
2022-08-26T11:15:54.190Z,31.60
2022-08-26T11:16:53.242Z,33.20
2022-08-26T11:17:53.201Z,34.20
2022-08-26T11:18:53.201Z,34.00
2022-08-26T11:20:02.200Z,30.60
2022-08-26T11:20:54.142Z,29.10
2022-08-26T11:21:53.113Z,32.80
2022-08-26T11:22:53.112Z,31.50
2022-08-26T11:23:53.103Z,28.20
2022-08-26T11:24:53.103Z,32.00
2022-08-26T11:25:53.072Z,30.40
2022-08-26T11:26:56.173Z,32.70
2022-08-26T11:27:53.114Z,30.70
2022-08-26T11:28:53.032Z,30.70
2022-08-26T11:29:53.013Z,32.00
2022-08-26T11:30:57.855Z,26.00
2022-08-26T11:31:54.042Z,27.60
2022-08-26T11:32:53.025Z,27.80
2022-08-26T11:33:52.963Z,28.70
2022-08-26T11:34:52.953Z,29.50
2022-08-26T11:35:52.963Z,30.30
2022-08-26T11:36:52.931Z,28.00
2022-08-26T11:37:52.927Z,28.70
2022-08-26T11:38:52.905Z,26.80
2022-08-26T11:39:55.461Z,27.30
2022-08-26T11:40:52.884Z,26.10
2022-08-26T11:41:53.086Z,28.40
2022-08-26T11:42:52.865Z,29.90
2022-08-26T11:43:52.834Z,30.30
2022-08-26T11:44:52.824Z,26.70
2022-08-26T11:45:52.840Z,29.80
2022-08-26T11:46:52.804Z,24.80
2022-08-26T11:47:52.785Z,26.20
2022-08-26T11:48:52.794Z,28.50
2022-08-26T11:49:52.763Z,28.80
2022-08-26T11:50:52.755Z,23.90
2022-08-26T11:51:52.745Z,28.20
2022-08-26T11:52:52.758Z,28.40
2022-08-26T11:53:52.723Z,26.80
2022-08-26T11:54:52.704Z,28.90
2022-08-26T11:55:52.685Z,30.40
2022-08-26T11:56:52.688Z,26.90
2022-08-26T11:57:52.666Z,25.30
2022-08-26T11:58:52.655Z,25.00
2022-08-26T11:59:52.640Z,28.90
2022-08-26T12:00:52.628Z,26.00
2022-08-26T12:01:52.615Z,22.80
2022-08-26T12:02:52.765Z,29.40
2022-08-26T12:03:52.701Z,25.60
2022-08-26T12:04:52.576Z,24.30
2022-08-26T12:05:52.566Z,23.40
2022-08-26T12:06:53.403Z,23.40
2022-08-26T12:07:53.151Z,26.00
2022-08-26T12:08:52.528Z,22.00
2022-08-26T12:09:52.507Z,22.20
2022-08-26T12:10:52.507Z,25.30
2022-08-26T12:11:52.486Z,29.00
2022-08-26T12:12:53.487Z,23.40
2022-08-26T12:13:52.457Z,26.00
2022-08-26T12:14:52.447Z,23.40
2022-08-26T12:15:52.435Z,20.90
2022-08-26T12:16:52.506Z,20.90
2022-08-26T12:17:54.644Z,21.10
2022-08-26T12:18:52.397Z,20.80
2022-08-26T12:19:52.386Z,20.90
2022-08-26T12:20:52.368Z,21.00
2022-08-26T12:21:52.356Z,18.90
2022-08-26T12:22:52.367Z,23.10
2022-08-26T12:23:52.328Z,25.00
2022-08-26T12:24:52.326Z,25.30
2022-08-26T12:25:52.308Z,22.50
2022-08-26T12:26:52.307Z,21.30
2022-08-26T12:27:53.996Z,22.10
2022-08-26T12:28:52.275Z,24.00
2022-08-26T12:29:52.259Z,19.40
2022-08-26T12:30:52.249Z,27.00
2022-08-26T12:31:52.357Z,18.70
2022-08-26T12:32:57.711Z,21.20
2022-08-26T12:33:53.246Z,18.10
2022-08-26T12:34:52.228Z,22.90
2022-08-26T12:35:56.225Z,20.50
2022-08-26T12:36:52.200Z,17.10
2022-08-26T12:37:52.159Z,23.10
2022-08-26T12:38:53.739Z,17.90
2022-08-26T12:39:52.151Z,14.60
2022-08-26T12:40:52.122Z,19.00
2022-08-26T12:41:52.110Z,17.00
2022-08-26T12:42:52.089Z,17.30
2022-08-26T12:43:52.093Z,16.10
2022-08-26T12:44:54.247Z,17.00
2022-08-26T12:45:52.093Z,18.50
2022-08-26T12:46:52.040Z,19.90
2022-08-26T12:47:52.030Z,17.70
2022-08-26T12:48:52.030Z,13.60
2022-08-26T12:49:52.009Z,15.60
2022-08-26T12:50:51.991Z,16.60
2022-08-26T12:51:51.992Z,16.70
2022-08-26T12:52:51.961Z,13.10
2022-08-26T12:53:51.974Z,15.40
2022-08-26T12:54:56.563Z,13.70
2022-08-26T12:55:52.930Z,14.40
2022-08-26T12:56:51.971Z,16.40
2022-08-26T12:57:51.920Z,15.70
2022-08-26T12:58:51.922Z,14.70
2022-08-26T12:59:51.880Z,16.70
2022-08-26T13:00:52.002Z,16.20
2022-08-26T13:01:51.980Z,14.30
2022-08-26T13:02:51.840Z,15.60
2022-08-26T13:03:51.842Z,15.50
2022-08-26T13:04:51.811Z,15.50
2022-08-26T13:05:51.810Z,17.80
2022-08-26T13:06:51.791Z,15.10
2022-08-26T13:07:51.781Z,14.00
2022-08-26T13:08:51.775Z,14.70
2022-08-26T13:09:51.753Z,12.40
2022-08-26T13:10:51.733Z,15.30
2022-08-26T13:11:51.733Z,13.90
2022-08-26T13:12:51.713Z,11.00
2022-08-26T13:13:51.781Z,15.40
2022-08-26T13:14:51.703Z,13.20
2022-08-26T13:15:51.710Z,15.00
2022-08-26T13:16:51.664Z,11.00
2022-08-26T13:17:51.655Z,17.60
2022-08-26T13:18:51.648Z,11.70
2022-08-26T13:19:51.624Z,10.90
2022-08-26T13:20:51.605Z,14.00
2022-08-26T13:21:51.597Z,11.10
2022-08-26T13:22:53.836Z,13.70
2022-08-26T13:23:52.594Z,10.90
2022-08-26T13:24:51.555Z,10.80
2022-08-26T13:25:51.545Z,12.30
2022-08-26T13:26:51.536Z,13.60
2022-08-26T13:27:51.525Z,14.10
2022-08-26T13:29:01.988Z,13.20
2022-08-26T13:29:52.504Z,12.90
2022-08-26T13:30:51.486Z,12.00
2022-08-26T13:31:51.565Z,15.80
2022-08-26T13:32:51.468Z,14.00
2022-08-26T13:33:51.466Z,14.50
2022-08-26T13:34:51.538Z,11.90
2022-08-26T13:35:51.426Z,19.00
2022-08-26T13:36:51.411Z,14.70
2022-08-26T13:37:51.419Z,14.00
2022-08-26T13:38:51.912Z,14.70
2022-08-26T13:39:51.433Z,13.30
2022-08-26T13:40:51.357Z,15.80
2022-08-26T13:41:51.357Z,9.50
2022-08-26T13:42:51.337Z,10.40
2022-08-26T13:43:51.347Z,12.30
2022-08-26T13:44:51.307Z,13.90
2022-08-26T13:45:51.298Z,14.40
2022-08-26T13:46:51.289Z,10.30
2022-08-26T13:47:51.298Z,11.90
2022-08-26T13:48:51.279Z,10.60
2022-08-26T13:49:51.247Z,13.80
2022-08-26T13:50:51.238Z,11.30
2022-08-26T13:51:51.218Z,12.10
2022-08-26T13:52:51.215Z,13.90
2022-08-26T13:53:51.209Z,17.40
2022-08-26T13:54:51.188Z,12.70
2022-08-26T13:55:51.259Z,9.00
2022-08-26T13:56:51.159Z,13.60
2022-08-26T13:57:51.149Z,13.70
2022-08-26T13:58:51.153Z,10.20
2022-08-26T13:59:51.118Z,13.60
2022-08-26T14:00:51.143Z,10.50
2022-08-26T14:01:51.159Z,13.90
2022-08-26T14:02:51.110Z,18.60
2022-08-26T14:03:51.255Z,13.10
2022-08-26T14:04:51.060Z,14.40
2022-08-26T14:05:51.049Z,13.70
2022-08-26T14:06:51.042Z,11.40
2022-08-26T14:07:51.019Z,10.00
2022-08-26T14:08:51.013Z,11.80
2022-08-26T14:09:51.001Z,9.90
2022-08-26T14:10:50.981Z,11.60
2022-08-26T14:11:54.805Z,13.30
2022-08-26T14:12:50.961Z,9.70
2022-08-26T14:13:50.949Z,13.70
2022-08-26T14:14:50.940Z,11.50
2022-08-26T14:15:50.970Z,14.80
2022-08-26T14:16:59.061Z,12.20
2022-08-26T14:17:51.891Z,10.40
2022-08-26T14:18:51.122Z,15.10
2022-08-26T14:19:50.870Z,16.00
2022-08-26T14:20:50.860Z,14.30
2022-08-26T14:21:50.842Z,13.50
2022-08-26T14:23:12.716Z,16.30
2022-08-26T14:23:51.821Z,12.30
2022-08-26T14:24:50.822Z,13.40
2022-08-26T14:25:50.793Z,11.60
2022-08-26T14:26:50.789Z,17.10
2022-08-26T14:27:50.771Z,11.00
2022-08-26T14:28:50.761Z,12.60
2022-08-26T14:29:50.751Z,11.60
2022-08-26T14:30:50.741Z,16.60
2022-08-26T14:31:50.712Z,14.20
2022-08-26T14:32:50.721Z,12.10
2022-08-26T14:33:50.691Z,13.40
2022-08-26T14:34:50.692Z,10.80
2022-08-26T14:35:50.671Z,14.60
2022-08-26T14:36:50.662Z,11.60
2022-08-26T14:37:50.644Z,17.40
2022-08-26T14:38:50.633Z,12.30
2022-08-26T14:39:50.639Z,11.90
2022-08-26T14:40:50.613Z,11.10
2022-08-26T14:41:53.709Z,12.90
2022-08-26T14:42:52.899Z,11.70
2022-08-26T14:43:50.566Z,10.50
2022-08-26T14:44:50.573Z,12.00
2022-08-26T14:45:50.543Z,11.70
2022-08-26T14:46:50.577Z,10.10
2022-08-26T14:47:50.514Z,11.70
2022-08-26T14:48:50.512Z,9.60
2022-08-26T14:49:50.499Z,11.00
2022-08-26T14:50:50.484Z,10.20
2022-08-26T14:51:50.465Z,13.20
2022-08-26T14:52:50.454Z,9.20
2022-08-26T14:53:50.442Z,12.00
2022-08-26T14:54:53.720Z,12.90
2022-08-26T14:55:50.453Z,9.00
2022-08-26T14:56:50.423Z,12.00
2022-08-26T14:57:50.392Z,10.60
2022-08-26T14:58:50.386Z,9.40
2022-08-26T14:59:50.607Z,12.90
2022-08-26T15:00:50.354Z,10.20
2022-08-26T15:01:50.386Z,10.60
2022-08-26T15:02:50.470Z,11.20
2022-08-26T15:03:50.315Z,11.60
2022-08-26T15:04:50.425Z,10.60
2022-08-26T15:05:50.295Z,11.50
2022-08-26T15:06:50.286Z,9.20
2022-08-26T15:07:50.264Z,9.70
2022-08-26T15:08:50.255Z,8.90
2022-08-26T15:09:50.255Z,10.90
2022-08-26T15:10:50.225Z,10.70
2022-08-26T15:11:50.207Z,10.90
2022-08-26T15:12:50.203Z,10.40
2022-08-26T15:13:50.185Z,12.10
2022-08-26T15:14:50.205Z,10.30
2022-08-26T15:15:50.243Z,11.40
2022-08-26T15:16:50.158Z,12.30
2022-08-26T15:17:50.137Z,11.10
2022-08-26T15:18:50.127Z,8.40
2022-08-26T15:19:50.124Z,10.50
2022-08-26T15:20:50.105Z,9.90
2022-08-26T15:21:50.086Z,10.40
2022-08-26T15:22:50.075Z,10.70
2022-08-26T15:23:50.056Z,10.70
2022-08-26T15:24:53.642Z,11.40
2022-08-26T15:25:50.058Z,10.00
2022-08-26T15:26:50.018Z,10.20
2022-08-26T15:27:49.998Z,13.50
2022-08-26T15:28:49.998Z,9.50
2022-08-26T15:29:49.978Z,8.80
2022-08-26T15:30:50.039Z,9.40
2022-08-26T15:31:49.947Z,8.10
2022-08-26T15:32:49.945Z,14.90
2022-08-26T15:33:49.937Z,7.90
2022-08-26T15:34:49.917Z,14.60
2022-08-26T15:35:49.906Z,7.50
2022-08-26T15:36:49.887Z,7.80
2022-08-26T15:38:49.858Z,8.80
2022-08-26T15:39:49.939Z,11.60
2022-08-26T15:40:49.848Z,6.30
2022-08-26T15:41:49.817Z,10.70
2022-08-26T15:42:57.552Z,8.10
2022-08-26T15:43:50.788Z,7.50
2022-08-26T15:44:49.778Z,9.80
2022-08-26T15:45:49.777Z,8.40
2022-08-26T15:46:49.816Z,7.70
2022-08-26T15:48:01.542Z,8.40
2022-08-26T15:48:50.728Z,8.20
2022-08-26T15:49:49.708Z,9.30
2022-08-26T15:50:49.708Z,9.40
2022-08-26T15:51:49.678Z,10.30
2022-08-26T15:52:49.668Z,8.50
2022-08-26T15:53:49.657Z,7.80
2022-08-26T15:54:49.648Z,6.90
2022-08-26T15:55:49.639Z,6.00
2022-08-26T15:56:49.618Z,7.20
2022-08-26T15:57:49.598Z,7.90
2022-08-26T15:58:49.597Z,10.60
2022-08-26T15:59:49.581Z,12.70
2022-08-26T16:00:49.578Z,12.40
2022-08-26T16:01:49.587Z,12.20
2022-08-26T16:02:49.539Z,8.70
2022-08-26T16:03:49.519Z,11.40
2022-08-26T16:04:49.509Z,12.20
2022-08-26T16:05:49.570Z,9.20
2022-08-26T16:06:49.491Z,13.00
2022-08-26T16:07:49.469Z,8.50
2022-08-26T16:08:49.459Z,9.60
2022-08-26T16:09:52.057Z,9.70
2022-08-26T16:10:50.764Z,12.50
2022-08-26T16:11:49.422Z,10.50
2022-08-26T16:12:49.409Z,10.00
2022-08-26T16:13:49.391Z,12.80
2022-08-26T16:14:49.382Z,7.30
2022-08-26T16:15:49.445Z,10.10
2022-08-26T16:16:49.360Z,5.80
2022-08-26T16:17:49.349Z,9.30
2022-08-26T16:18:49.384Z,13.80
2022-08-26T16:19:49.319Z,10.60
2022-08-26T16:20:57.401Z,15.00
2022-08-26T16:21:50.301Z,11.20
2022-08-26T16:22:49.280Z,10.40
2022-08-26T16:23:49.269Z,10.10
2022-08-26T16:24:49.260Z,8.50
2022-08-26T16:25:49.240Z,11.90
2022-08-26T16:26:49.251Z,14.10
2022-08-26T16:27:49.221Z,14.30
2022-08-26T16:28:49.210Z,13.40
2022-08-26T16:29:49.191Z,10.20
2022-08-26T16:30:49.213Z,15.60
2022-08-26T16:31:49.170Z,12.00
2022-08-26T16:32:49.159Z,11.80
2022-08-26T16:33:49.140Z,11.30
2022-08-26T16:34:56.321Z,16.50
2022-08-26T16:36:49.123Z,10.00
2022-08-26T16:37:49.091Z,9.90
2022-08-26T16:38:49.084Z,11.70
2022-08-26T16:39:49.090Z,14.20
2022-08-26T16:40:49.067Z,10.50
2022-08-26T16:41:49.053Z,12.80
2022-08-26T16:42:49.030Z,13.10
2022-08-26T16:43:49.013Z,11.60
2022-08-26T16:44:49.002Z,10.80
2022-08-26T16:46:39.660Z,11.60
2022-08-26T16:47:39.464Z,9.90
2022-08-26T16:48:39.445Z,11.90
2022-08-26T16:49:39.445Z,12.50
2022-08-26T16:50:39.425Z,8.90
2022-08-26T16:51:39.419Z,8.10
2022-08-26T16:52:39.395Z,10.40
2022-08-26T16:53:39.385Z,12.60
2022-08-26T16:54:39.368Z,11.00
2022-08-26T16:55:39.355Z,9.90
2022-08-26T16:56:39.357Z,12.30
2022-08-26T16:57:39.339Z,9.70
2022-08-26T16:58:39.326Z,7.40
2022-08-26T16:59:39.306Z,10.70
2022-08-26T17:00:39.285Z,9.40
2022-08-26T17:01:39.312Z,8.00
2022-08-26T17:02:39.296Z,10.30
2022-08-26T17:03:39.259Z,5.50
2022-08-26T17:04:39.236Z,8.90
2022-08-26T17:05:39.227Z,9.40
2022-08-26T17:06:39.228Z,11.50
2022-08-26T17:07:39.215Z,9.80
2022-08-26T17:08:39.206Z,10.80
2022-08-26T17:09:39.186Z,11.50
2022-08-26T17:10:39.207Z,9.00
2022-08-26T17:11:39.167Z,11.50
2022-08-26T17:12:39.128Z,7.30
2022-08-26T17:13:39.126Z,8.80
2022-08-26T17:14:39.106Z,7.60
2022-08-26T17:15:39.152Z,8.50
2022-08-26T17:16:39.096Z,7.90
2022-08-26T17:17:39.075Z,10.70
2022-08-26T17:18:39.056Z,12.10
2022-08-26T17:19:41.068Z,7.40
2022-08-26T17:20:40.027Z,9.10
2022-08-26T17:21:39.035Z,9.80
2022-08-26T17:22:39.006Z,6.30
2022-08-26T17:23:38.994Z,11.80
2022-08-26T17:24:38.977Z,5.70
2022-08-26T17:25:38.967Z,9.10
2022-08-26T17:26:38.977Z,4.80
2022-08-26T17:27:38.948Z,8.60